sensor_id;sensor_type;location;lat;lon;timestamp;pressure;altitude;pressure_sealevel;temperature;humidity
58598;BME280;60319;46.908;16.848;2022-07-06T00:00:07;99754.00;;;17.36;100.00
58598;BME280;60319;46.908;16.848;2022-07-06T00:05:10;99753.56;;;17.09;100.00
58598;BME280;60319;46.908;16.848;2022-07-06T00:10:10;99761.66;;;17.00;100.00
58598;BME280;60319;46.908;16.848;2022-07-06T00:15:11;99768.50;;;16.88;100.00
58598;BME280;60319;46.908;16.848;2022-07-06T00:20:11;99757.00;;;16.94;100.00
58598;BME280;60319;46.908;16.848;2022-07-06T00:25:12;99764.34;;;16.77;100.00
58598;BME280;60319;46.908;16.848;2022-07-06T00:30:12;99764.81;;;16.57;100.00
58598;BME280;60319;46.908;16.848;2022-07-06T00:35:13;99776.13;;;16.44;100.00
58598;BME280;60319;46.908;16.848;2022-07-06T00:40:13;99775.53;;;16.34;100.00
58598;BME280;60319;46.908;16.848;2022-07-06T00:45:16;99782.59;;;16.26;100.00
58598;BME280;60319;46.908;16.848;2022-07-06T00:50:17;99776.91;;;16.21;100.00
58598;BME280;60319;46.908;16.848;2022-07-06T00:55:24;99779.25;;;16.24;100.00
58598;BME280;60319;46.908;16.848;2022-07-06T01:00:26;99782.28;;;16.21;100.00
58598;BME280;60319;46.908;16.848;2022-07-06T01:05:27;99783.81;;;16.24;100.00
58598;BME280;60319;46.908;16.848;2022-07-06T01:10:27;99786.34;;;16.09;100.00
58598;BME280;60319;46.908;16.848;2022-07-06T01:15:28;99783.81;;;16.15;100.00
58598;BME280;60319;46.908;16.848;2022-07-06T01:20:29;99782.03;;;15.99;100.00
58598;BME280;60319;46.908;16.848;2022-07-06T01:25:29;99791.22;;;16.13;100.00
58598;BME280;60319;46.908;16.848;2022-07-06T01:30:30;99793.59;;;16.08;100.00
58598;BME280;60319;46.908;16.848;2022-07-06T01:35:31;99792.44;;;16.02;100.00
58598;BME280;60319;46.908;16.848;2022-07-06T01:40:35;99792.41;;;15.94;100.00
58598;BME280;60319;46.908;16.848;2022-07-06T01:45:36;99798.78;;;16.01;100.00
58598;BME280;60319;46.908;16.848;2022-07-06T01:50:36;99805.44;;;16.22;100.00
58598;BME280;60319;46.908;16.848;2022-07-06T01:55:39;99804.38;;;16.32;100.00
58598;BME280;60319;46.908;16.848;2022-07-06T02:00:40;99811.06;;;16.36;100.00
58598;BME280;60319;46.908;16.848;2022-07-06T02:05:40;99808.97;;;16.54;100.00
58598;BME280;60319;46.908;16.848;2022-07-06T02:10:41;99807.72;;;16.65;100.00
58598;BME280;60319;46.908;16.848;2022-07-06T02:15:41;99813.94;;;16.66;100.00
58598;BME280;60319;46.908;16.848;2022-07-06T02:20:42;99816.31;;;16.61;100.00
58598;BME280;60319;46.908;16.848;2022-07-06T02:25:43;99823.19;;;16.63;100.00
58598;BME280;60319;46.908;16.848;2022-07-06T02:30:43;99810.94;;;16.61;100.00
58598;BME280;60319;46.908;16.848;2022-07-06T02:35:44;99814.41;;;16.69;100.00
58598;BME280;60319;46.908;16.848;2022-07-06T02:40:44;99810.56;;;16.64;100.00
58598;BME280;60319;46.908;16.848;2022-07-06T02:45:45;99800.06;;;16.54;100.00
58598;BME280;60319;46.908;16.848;2022-07-06T02:50:45;99799.81;;;16.40;100.00
58598;BME280;60319;46.908;16.848;2022-07-06T02:55:45;99785.53;;;16.40;100.00
58598;BME280;60319;46.908;16.848;2022-07-06T03:00:46;99775.19;;;16.28;100.00
58598;BME280;60319;46.908;16.848;2022-07-06T03:05:46;99776.25;;;16.19;100.00
58598;BME280;60319;46.908;16.848;2022-07-06T03:10:48;99784.31;;;16.19;100.00
58598;BME280;60319;46.908;16.848;2022-07-06T03:15:49;99797.94;;;16.09;100.00
58598;BME280;60319;46.908;16.848;2022-07-06T03:20:49;99802.41;;;16.17;100.00
58598;BME280;60319;46.908;16.848;2022-07-06T03:25:50;99806.25;;;16.23;100.00
58598;BME280;60319;46.908;16.848;2022-07-06T03:30:50;99808.59;;;16.26;100.00
58598;BME280;60319;46.908;16.848;2022-07-06T03:35:51;99811.88;;;16.45;100.00
58598;BME280;60319;46.908;16.848;2022-07-06T03:40:51;99799.88;;;16.87;100.00
58598;BME280;60319;46.908;16.848;2022-07-06T03:45:52;99800.50;;;17.75;100.00
58598;BME280;60319;46.908;16.848;2022-07-06T03:50:52;99796.44;;;18.09;100.00
58598;BME280;60319;46.908;16.848;2022-07-06T03:55:53;99795.69;;;18.67;100.00
58598;BME280;60319;46.908;16.848;2022-07-06T04:01:15;99785.50;;;21.03;95.64
58598;BME280;60319;46.908;16.848;2022-07-06T04:06:15;99787.34;;;19.92;99.85
58598;BME280;60319;46.908;16.848;2022-07-06T04:11:16;99779.53;;;23.69;82.33
58598;BME280;60319;46.908;16.848;2022-07-06T04:16:16;99781.09;;;26.14;69.68
58598;BME280;60319;46.908;16.848;2022-07-06T04:21:17;99779.09;;;27.88;60.54
58598;BME280;60319;46.908;16.848;2022-07-06T04:26:17;99778.97;;;29.38;54.04
58598;BME280;60319;46.908;16.848;2022-07-06T04:31:18;99782.81;;;30.65;49.48
58598;BME280;60319;46.908;16.848;2022-07-06T04:36:18;99778.06;;;31.85;46.56
58598;BME280;60319;46.908;16.848;2022-07-06T04:41:18;99773.66;;;32.85;44.35
58598;BME280;60319;46.908;16.848;2022-07-06T04:46:19;99762.09;;;33.77;42.74
58598;BME280;60319;46.908;16.848;2022-07-06T04:51:20;99771.69;;;34.62;39.34
58598;BME280;60319;46.908;16.848;2022-07-06T04:56:20;99784.41;;;35.16;37.59
58598;BME280;60319;46.908;16.848;2022-07-06T05:01:21;99778.28;;;36.03;35.53
58598;BME280;60319;46.908;16.848;2022-07-06T05:06:21;99789.16;;;36.50;34.78
58598;BME280;60319;46.908;16.848;2022-07-06T05:11:21;99787.91;;;36.06;34.34
58598;BME280;60319;46.908;16.848;2022-07-06T05:16:22;99789.25;;;35.94;34.63
58598;BME280;60319;46.908;16.848;2022-07-06T05:21:23;99786.75;;;36.35;33.93
58598;BME280;60319;46.908;16.848;2022-07-06T05:26:23;99791.47;;;36.94;32.50
58598;BME280;60319;46.908;16.848;2022-07-06T05:31:24;99784.44;;;37.51;31.88
58598;BME280;60319;46.908;16.848;2022-07-06T05:36:25;99789.19;;;38.00;31.38
58598;BME280;60319;46.908;16.848;2022-07-06T05:41:26;99794.00;;;38.26;31.05
58598;BME280;60319;46.908;16.848;2022-07-06T05:46:26;99790.06;;;38.19;30.30
58598;BME280;60319;46.908;16.848;2022-07-06T05:51:28;99805.09;;;38.53;29.64
58598;BME280;60319;46.908;16.848;2022-07-06T05:56:28;99804.53;;;37.98;30.44
58598;BME280;60319;46.908;16.848;2022-07-06T06:01:29;99795.47;;;38.50;29.63
58598;BME280;60319;46.908;16.848;2022-07-06T06:06:29;99799.13;;;37.52;30.36
58598;BME280;60319;46.908;16.848;2022-07-06T06:11:31;99793.94;;;33.35;35.06
58598;BME280;60319;46.908;16.848;2022-07-06T06:16:32;99812.53;;;31.25;41.02
58598;BME280;60319;46.908;16.848;2022-07-06T06:21:32;99808.22;;;33.66;37.70
58598;BME280;60319;46.908;16.848;2022-07-06T06:26:32;99818.34;;;32.21;39.68
58598;BME280;60319;46.908;16.848;2022-07-06T06:31:33;99802.13;;;32.20;39.51
58598;BME280;60319;46.908;16.848;2022-07-06T06:36:33;99817.72;;;30.91;40.43
58598;BME280;60319;46.908;16.848;2022-07-06T06:41:34;99816.16;;;30.20;45.28
58598;BME280;60319;46.908;16.848;2022-07-06T06:46:35;99819.44;;;29.31;45.00
58598;BME280;60319;46.908;16.848;2022-07-06T06:51:35;99813.34;;;28.91;47.28
58598;BME280;60319;46.908;16.848;2022-07-06T06:56:37;99824.56;;;28.62;48.96
58598;BME280;60319;46.908;16.848;2022-07-06T07:01:38;99813.81;;;29.10;48.12
58598;BME280;60319;46.908;16.848;2022-07-06T07:06:39;99813.81;;;32.51;41.85
58598;BME280;60319;46.908;16.848;2022-07-06T07:11:39;99809.34;;;34.09;38.56
58598;BME280;60319;46.908;16.848;2022-07-06T07:16:40;99813.31;;;34.03;34.62
58598;BME280;60319;46.908;16.848;2022-07-06T07:21:40;99810.06;;;32.77;34.13
58598;BME280;60319;46.908;16.848;2022-07-06T07:26:41;99813.78;;;31.80;37.61
58598;BME280;60319;46.908;16.848;2022-07-06T07:31:41;99806.28;;;30.19;38.58
58598;BME280;60319;46.908;16.848;2022-07-06T07:36:42;99815.00;;;29.57;39.56
58598;BME280;60319;46.908;16.848;2022-07-06T07:41:42;99806.00;;;28.19;43.01
58598;BME280;60319;46.908;16.848;2022-07-06T07:46:43;99821.34;;;27.80;44.78
58598;BME280;60319;46.908;16.848;2022-07-06T07:51:43;99825.72;;;27.81;47.08
58598;BME280;60319;46.908;16.848;2022-07-06T07:56:44;99830.78;;;27.55;43.56
58598;BME280;60319;46.908;16.848;2022-07-06T08:01:44;99822.97;;;27.42;44.94
58598;BME280;60319;46.908;16.848;2022-07-06T08:06:46;99821.94;;;27.48;47.01
58598;BME280;60319;46.908;16.848;2022-07-06T08:11:46;99830.78;;;27.73;47.75
58598;BME280;60319;46.908;16.848;2022-07-06T08:16:46;99823.97;;;27.92;47.66
58598;BME280;60319;46.908;16.848;2022-07-06T08:21:47;99830.72;;;27.50;47.83
58598;BME280;60319;46.908;16.848;2022-07-06T08:26:47;99823.88;;;27.30;46.31
58598;BME280;60319;46.908;16.848;2022-07-06T08:31:48;99832.19;;;27.41;44.21
58598;BME280;60319;46.908;16.848;2022-07-06T08:36:49;99830.06;;;27.43;44.66
58598;BME280;60319;46.908;16.848;2022-07-06T08:41:50;99828.50;;;27.30;46.94
58598;BME280;60319;46.908;16.848;2022-07-06T08:46:52;99828.72;;;27.11;46.44
58598;BME280;60319;46.908;16.848;2022-07-06T08:51:54;99833.44;;;26.87;46.22
58598;BME280;60319;46.908;16.848;2022-07-06T08:56:55;99834.03;;;27.18;45.18
58598;BME280;60319;46.908;16.848;2022-07-06T09:01:56;99837.06;;;27.04;43.08
58598;BME280;60319;46.908;16.848;2022-07-06T09:06:57;99846.63;;;26.61;45.96
58598;BME280;60319;46.908;16.848;2022-07-06T09:11:58;99841.97;;;26.20;47.13
58598;BME280;60319;46.908;16.848;2022-07-06T09:17:11;99829.53;;;26.65;45.29
58598;BME280;60319;46.908;16.848;2022-07-06T09:22:31;99829.69;;;26.88;44.89
58598;BME280;60319;46.908;16.848;2022-07-06T09:27:37;99838.31;;;27.14;46.87
58598;BME280;60319;46.908;16.848;2022-07-06T09:32:41;99834.84;;;27.18;45.41
58598;BME280;60319;46.908;16.848;2022-07-06T09:37:42;99834.44;;;27.27;44.43
58598;BME280;60319;46.908;16.848;2022-07-06T09:42:42;99829.31;;;26.84;44.45
58598;BME280;60319;46.908;16.848;2022-07-06T09:47:47;99826.09;;;26.99;47.16
58598;BME280;60319;46.908;16.848;2022-07-06T09:52:54;99820.22;;;26.78;43.83
58598;BME280;60319;46.908;16.848;2022-07-06T09:57:55;99819.34;;;26.90;43.56
58598;BME280;60319;46.908;16.848;2022-07-06T10:02:56;99822.13;;;26.49;44.05
58598;BME280;60319;46.908;16.848;2022-07-06T10:07:59;99828.69;;;26.94;43.37
58598;BME280;60319;46.908;16.848;2022-07-06T10:13:00;99823.63;;;27.15;44.35
58598;BME280;60319;46.908;16.848;2022-07-06T10:18:02;99819.75;;;27.28;42.96
58598;BME280;60319;46.908;16.848;2022-07-06T10:23:04;99825.28;;;27.67;41.99
58598;BME280;60319;46.908;16.848;2022-07-06T10:28:05;99823.38;;;27.34;41.98
58598;BME280;60319;46.908;16.848;2022-07-06T10:33:14;99816.78;;;27.86;42.41
58598;BME280;60319;46.908;16.848;2022-07-06T10:38:16;99819.53;;;27.86;41.83
58598;BME280;60319;46.908;16.848;2022-07-06T10:43:17;99815.16;;;28.07;44.11
58598;BME280;60319;46.908;16.848;2022-07-06T10:48:18;99799.41;;;28.15;42.54
58598;BME280;60319;46.908;16.848;2022-07-06T10:53:28;99814.13;;;27.91;40.92
58598;BME280;60319;46.908;16.848;2022-07-06T10:58:50;99802.13;;;28.15;44.21
58598;BME280;60319;46.908;16.848;2022-07-06T11:09:07;99791.44;;;27.91;43.41
58598;BME280;60319;46.908;16.848;2022-07-06T11:14:21;99793.09;;;28.37;41.26
58598;BME280;60319;46.908;16.848;2022-07-06T11:19:23;99787.56;;;28.87;40.34
58598;BME280;60319;46.908;16.848;2022-07-06T11:29:28;99783.22;;;28.91;40.84
58598;BME280;60319;46.908;16.848;2022-07-06T11:34:34;99782.28;;;28.47;42.77
58598;BME280;60319;46.908;16.848;2022-07-06T11:39:40;99783.31;;;28.68;38.39
58598;BME280;60319;46.908;16.848;2022-07-06T11:44:41;99784.56;;;28.55;40.38
58598;BME280;60319;46.908;16.848;2022-07-06T11:49:42;99767.88;;;28.84;40.38
58598;BME280;60319;46.908;16.848;2022-07-06T11:54:43;99774.75;;;28.59;43.62
58598;BME280;60319;46.908;16.848;2022-07-06T11:59:49;99771.56;;;28.40;42.69
58598;BME280;60319;46.908;16.848;2022-07-06T12:04:51;99782.13;;;28.09;44.41
58598;BME280;60319;46.908;16.848;2022-07-06T12:09:52;99788.59;;;27.80;44.99
58598;BME280;60319;46.908;16.848;2022-07-06T12:14:53;99772.78;;;28.27;44.85
58598;BME280;60319;46.908;16.848;2022-07-06T12:19:54;99759.63;;;29.12;44.46
58598;BME280;60319;46.908;16.848;2022-07-06T12:24:55;99755.72;;;28.70;42.93
58598;BME280;60319;46.908;16.848;2022-07-06T12:30:08;99759.50;;;27.91;47.56
58598;BME280;60319;46.908;16.848;2022-07-06T12:35:09;99768.81;;;27.56;42.07
58598;BME280;60319;46.908;16.848;2022-07-06T12:40:13;99771.34;;;27.23;43.69
58598;BME280;60319;46.908;16.848;2022-07-06T12:45:14;99773.53;;;26.75;50.22
58598;BME280;60319;46.908;16.848;2022-07-06T12:50:14;99776.91;;;26.65;49.71
58598;BME280;60319;46.908;16.848;2022-07-06T12:55:15;99774.47;;;27.66;44.39
58598;BME280;60319;46.908;16.848;2022-07-06T13:00:16;99778.84;;;27.50;46.81
58598;BME280;60319;46.908;16.848;2022-07-06T13:05:17;99783.88;;;26.02;48.63
58598;BME280;60319;46.908;16.848;2022-07-06T13:10:17;99777.16;;;25.45;47.42
58598;BME280;60319;46.908;16.848;2022-07-06T13:15:18;99776.56;;;25.55;49.96
58598;BME280;60319;46.908;16.848;2022-07-06T13:20:18;99788.03;;;25.45;51.74
58598;BME280;60319;46.908;16.848;2022-07-06T13:25:19;99820.03;;;24.95;52.91
58598;BME280;60319;46.908;16.848;2022-07-06T13:30:20;99827.81;;;24.42;48.67
58598;BME280;60319;46.908;16.848;2022-07-06T13:35:20;99833.84;;;23.88;48.33
58598;BME280;60319;46.908;16.848;2022-07-06T13:40:21;99846.91;;;23.54;49.09
58598;BME280;60319;46.908;16.848;2022-07-06T13:45:21;99833.47;;;23.84;50.03
58598;BME280;60319;46.908;16.848;2022-07-06T13:50:22;99830.72;;;23.66;48.13
58598;BME280;60319;46.908;16.848;2022-07-06T13:55:22;99828.06;;;24.22;48.91
58598;BME280;60319;46.908;16.848;2022-07-06T14:00:23;99827.53;;;24.81;43.74
58598;BME280;60319;46.908;16.848;2022-07-06T14:05:24;99817.97;;;25.33;44.03
58598;BME280;60319;46.908;16.848;2022-07-06T14:10:24;99819.78;;;25.63;44.37
58598;BME280;60319;46.908;16.848;2022-07-06T14:15:25;99814.53;;;25.86;42.18
58598;BME280;60319;46.908;16.848;2022-07-06T14:20:26;99807.59;;;25.78;41.29
58598;BME280;60319;46.908;16.848;2022-07-06T14:25:26;99820.13;;;25.67;42.97
58598;BME280;60319;46.908;16.848;2022-07-06T14:30:29;99812.06;;;25.48;42.21
58598;BME280;60319;46.908;16.848;2022-07-06T14:35:30;99797.38;;;25.49;43.03
58598;BME280;60319;46.908;16.848;2022-07-06T14:40:31;99801.88;;;25.20;44.98
58598;BME280;60319;46.908;16.848;2022-07-06T14:45:32;99803.72;;;25.07;44.84
58598;BME280;60319;46.908;16.848;2022-07-06T14:50:32;99796.63;;;24.94;45.93
58598;BME280;60319;46.908;16.848;2022-07-06T14:55:37;99801.25;;;24.75;45.26
58598;BME280;60319;46.908;16.848;2022-07-06T15:00:38;99798.66;;;24.80;47.06
58598;BME280;60319;46.908;16.848;2022-07-06T15:05:38;99790.84;;;24.72;45.86
58598;BME280;60319;46.908;16.848;2022-07-06T15:10:39;99782.66;;;24.91;46.02
58598;BME280;60319;46.908;16.848;2022-07-06T15:15:39;99792.38;;;25.10;47.90
58598;BME280;60319;46.908;16.848;2022-07-06T15:20:40;99791.41;;;25.05;45.64
58598;BME280;60319;46.908;16.848;2022-07-06T15:25:40;99785.41;;;25.03;46.96
58598;BME280;60319;46.908;16.848;2022-07-06T15:30:41;99785.56;;;25.20;45.99
58598;BME280;60319;46.908;16.848;2022-07-06T15:35:44;99785.56;;;25.20;47.24
58598;BME280;60319;46.908;16.848;2022-07-06T15:40:44;99782.06;;;25.00;45.92
58598;BME280;60319;46.908;16.848;2022-07-06T15:45:47;99789.31;;;25.07;45.26
58598;BME280;60319;46.908;16.848;2022-07-06T15:50:55;99791.56;;;25.10;45.97
58598;BME280;60319;46.908;16.848;2022-07-06T15:55:57;99789.28;;;24.64;48.08
58598;BME280;60319;46.908;16.848;2022-07-06T16:00:57;99797.94;;;24.42;46.36
58598;BME280;60319;46.908;16.848;2022-07-06T16:06:00;99800.66;;;24.42;48.60
58598;BME280;60319;46.908;16.848;2022-07-06T16:11:00;99802.63;;;24.35;50.85
58598;BME280;60319;46.908;16.848;2022-07-06T16:16:01;99788.84;;;24.18;49.67
58598;BME280;60319;46.908;16.848;2022-07-06T16:21:02;99790.78;;;23.92;50.88
58598;BME280;60319;46.908;16.848;2022-07-06T16:26:02;99781.19;;;23.89;52.43
58598;BME280;60319;46.908;16.848;2022-07-06T16:31:03;99789.19;;;23.84;52.73
58598;BME280;60319;46.908;16.848;2022-07-06T16:36:05;99778.41;;;24.15;52.21
58598;BME280;60319;46.908;16.848;2022-07-06T16:41:09;99784.75;;;24.27;52.02
58598;BME280;60319;46.908;16.848;2022-07-06T16:46:09;99782.47;;;24.43;53.60
58598;BME280;60319;46.908;16.848;2022-07-06T16:51:10;99784.75;;;24.58;53.77
58598;BME280;60319;46.908;16.848;2022-07-06T16:56:10;99789.13;;;24.59;52.54
58598;BME280;60319;46.908;16.848;2022-07-06T17:01:11;99789.88;;;24.35;53.51
58598;BME280;60319;46.908;16.848;2022-07-06T17:06:12;99779.47;;;24.32;53.27
58598;BME280;60319;46.908;16.848;2022-07-06T17:11:13;99782.84;;;24.09;54.85
58598;BME280;60319;46.908;16.848;2022-07-06T17:16:14;99780.44;;;23.82;56.10
58598;BME280;60319;46.908;16.848;2022-07-06T17:21:17;99796.88;;;23.68;55.17
58598;BME280;60319;46.908;16.848;2022-07-06T17:26:18;99785.31;;;23.54;55.62
58598;BME280;60319;46.908;16.848;2022-07-06T17:31:19;99804.31;;;23.29;58.14
58598;BME280;60319;46.908;16.848;2022-07-06T17:36:20;99803.81;;;23.13;59.90
58598;BME280;60319;46.908;16.848;2022-07-06T17:41:21;99791.22;;;22.93;61.41
58598;BME280;60319;46.908;16.848;2022-07-06T17:46:22;99798.47;;;22.67;63.57
58598;BME280;60319;46.908;16.848;2022-07-06T17:51:22;99803.91;;;22.54;64.85
58598;BME280;60319;46.908;16.848;2022-07-06T17:56:23;99804.00;;;22.40;66.23
58598;BME280;60319;46.908;16.848;2022-07-06T18:01:24;99802.72;;;22.43;67.64
58598;BME280;60319;46.908;16.848;2022-07-06T18:06:24;99813.84;;;22.21;67.83
58598;BME280;60319;46.908;16.848;2022-07-06T18:11:25;99814.97;;;22.00;67.59
58598;BME280;60319;46.908;16.848;2022-07-06T18:16:25;99826.06;;;21.78;67.77
58598;BME280;60319;46.908;16.848;2022-07-06T18:21:26;99820.22;;;21.54;68.27
58598;BME280;60319;46.908;16.848;2022-07-06T18:26:27;99826.66;;;21.33;70.58
58598;BME280;60319;46.908;16.848;2022-07-06T18:31:31;99821.06;;;21.14;73.01
58598;BME280;60319;46.908;16.848;2022-07-06T18:36:31;99819.38;;;20.93;75.78
58598;BME280;60319;46.908;16.848;2022-07-06T18:41:32;99826.34;;;20.73;77.53
58598;BME280;60319;46.908;16.848;2022-07-06T18:46:33;99828.94;;;20.33;81.84
58598;BME280;60319;46.908;16.848;2022-07-06T18:51:34;99831.34;;;20.21;82.34
58598;BME280;60319;46.908;16.848;2022-07-06T18:56:37;99831.41;;;19.99;86.72
58598;BME280;60319;46.908;16.848;2022-07-06T19:01:38;99828.34;;;19.73;89.63
58598;BME280;60319;46.908;16.848;2022-07-06T19:06:39;99827.22;;;19.61;90.58
58598;BME280;60319;46.908;16.848;2022-07-06T19:11:39;99843.53;;;19.24;98.38
58598;BME280;60319;46.908;16.848;2022-07-06T19:16:40;99848.66;;;19.19;95.15
58598;BME280;60319;46.908;16.848;2022-07-06T19:21:40;99854.06;;;19.04;98.33
58598;BME280;60319;46.908;16.848;2022-07-06T19:26:41;99858.41;;;18.83;100.00
58598;BME280;60319;46.908;16.848;2022-07-06T19:31:42;99864.66;;;18.68;100.00
58598;BME280;60319;46.908;16.848;2022-07-06T19:36:43;99867.78;;;18.50;100.00
58598;BME280;60319;46.908;16.848;2022-07-06T19:41:44;99867.94;;;18.33;100.00
58598;BME280;60319;46.908;16.848;2022-07-06T19:46:46;99863.44;;;18.19;100.00
58598;BME280;60319;46.908;16.848;2022-07-06T19:51:46;99874.94;;;18.13;100.00
58598;BME280;60319;46.908;16.848;2022-07-06T19:56:50;99874.22;;;17.95;100.00
58598;BME280;60319;46.908;16.848;2022-07-06T20:01:50;99882.03;;;17.90;100.00
58598;BME280;60319;46.908;16.848;2022-07-06T20:06:51;99877.00;;;17.72;100.00
58598;BME280;60319;46.908;16.848;2022-07-06T20:11:52;99891.88;;;17.59;100.00
58598;BME280;60319;46.908;16.848;2022-07-06T20:16:52;99888.63;;;17.49;100.00
58598;BME280;60319;46.908;16.848;2022-07-06T20:21:56;99882.34;;;17.33;100.00
58598;BME280;60319;46.908;16.848;2022-07-06T20:26:57;99896.38;;;17.20;100.00
58598;BME280;60319;46.908;16.848;2022-07-06T20:31:57;99895.94;;;17.09;100.00
58598;BME280;60319;46.908;16.848;2022-07-06T20:36:58;99897.63;;;17.01;100.00
58598;BME280;60319;46.908;16.848;2022-07-06T20:41:58;99891.00;;;16.89;100.00
58598;BME280;60319;46.908;16.848;2022-07-06T20:46:59;99909.31;;;16.85;100.00
58598;BME280;60319;46.908;16.848;2022-07-06T20:52:00;99903.97;;;16.77;100.00
58598;BME280;60319;46.908;16.848;2022-07-06T20:57:00;99908.88;;;16.73;100.00
58598;BME280;60319;46.908;16.848;2022-07-06T21:02:02;99901.34;;;16.68;100.00
58598;BME280;60319;46.908;16.848;2022-07-06T21:07:03;99907.94;;;16.58;100.00
58598;BME280;60319;46.908;16.848;2022-07-06T21:12:04;99915.34;;;16.47;100.00
58598;BME280;60319;46.908;16.848;2022-07-06T21:17:05;99919.38;;;16.43;100.00
58598;BME280;60319;46.908;16.848;2022-07-06T21:22:06;99924.44;;;16.38;100.00
58598;BME280;60319;46.908;16.848;2022-07-06T21:27:07;99915.41;;;16.30;100.00
58598;BME280;60319;46.908;16.848;2022-07-06T21:32:08;99922.94;;;16.27;100.00
58598;BME280;60319;46.908;16.848;2022-07-06T21:37:08;99920.78;;;16.22;100.00
58598;BME280;60319;46.908;16.848;2022-07-06T21:42:09;99918.44;;;16.19;100.00
58598;BME280;60319;46.908;16.848;2022-07-06T21:47:09;99910.09;;;16.14;100.00
58598;BME280;60319;46.908;16.848;2022-07-06T21:52:10;99915.44;;;16.05;100.00
58598;BME280;60319;46.908;16.848;2022-07-06T21:57:10;99915.59;;;16.04;100.00
58598;BME280;60319;46.908;16.848;2022-07-06T22:02:11;99912.78;;;15.97;100.00
58598;BME280;60319;46.908;16.848;2022-07-06T22:07:11;99915.09;;;15.92;100.00
58598;BME280;60319;46.908;16.848;2022-07-06T22:12:12;99919.78;;;15.90;100.00
58598;BME280;60319;46.908;16.848;2022-07-06T22:17:12;99926.66;;;15.84;100.00
58598;BME280;60319;46.908;16.848;2022-07-06T22:22:13;99927.53;;;15.76;100.00
58598;BME280;60319;46.908;16.848;2022-07-06T22:27:14;99920.66;;;15.65;100.00
58598;BME280;60319;46.908;16.848;2022-07-06T22:32:14;99929.03;;;15.62;100.00
58598;BME280;60319;46.908;16.848;2022-07-06T22:37:15;99925.66;;;15.60;100.00
58598;BME280;60319;46.908;16.848;2022-07-06T22:42:16;99921.97;;;15.53;100.00
58598;BME280;60319;46.908;16.848;2022-07-06T22:47:19;99920.47;;;15.50;100.00
58598;BME280;60319;46.908;16.848;2022-07-06T22:52:20;99927.34;;;15.53;100.00
58598;BME280;60319;46.908;16.848;2022-07-06T22:57:21;99913.28;;;15.51;100.00
58598;BME280;60319;46.908;16.848;2022-07-06T23:02:21;99921.13;;;15.44;100.00
58598;BME280;60319;46.908;16.848;2022-07-06T23:07:25;99922.31;;;15.41;100.00
58598;BME280;60319;46.908;16.848;2022-07-06T23:12:26;99912.44;;;15.34;100.00
58598;BME280;60319;46.908;16.848;2022-07-06T23:17:26;99916.13;;;15.33;100.00
58598;BME280;60319;46.908;16.848;2022-07-06T23:22:27;99919.94;;;15.22;100.00
58598;BME280;60319;46.908;16.848;2022-07-06T23:27:31;99918.75;;;15.24;100.00
58598;BME280;60319;46.908;16.848;2022-07-06T23:32:31;99917.41;;;15.20;100.00
58598;BME280;60319;46.908;16.848;2022-07-06T23:37:33;99916.44;;;15.21;100.00
58598;BME280;60319;46.908;16.848;2022-07-06T23:42:34;99920.25;;;15.19;100.00
58598;BME280;60319;46.908;16.848;2022-07-06T23:47:34;99914.91;;;15.19;100.00
58598;BME280;60319;46.908;16.848;2022-07-06T23:52:35;99912.75;;;15.14;100.00
58598;BME280;60319;46.908;16.848;2022-07-06T23:57:36;99913.22;;;15.09;100.00
